Time;durP1;ratioP1;P1;durP2;ratioP2;P2;SDS_P1;SDS_P2;PMS_P1;PMS_P2;Temp;Humidity;BMP_temperature;BMP_pressure;BME280_temperature;BME280_humidity;BME280_pressure;Samples;Min_cycle;Max_cycle;Signal;HPM_P1;HPM_P2
2023/06/29 00:01:33;;;;;;;2.50;2.30;;;;;;;20.82;56.41;101226.19;110533;1267;22407;-49
2023/06/29 00:03:59;;;;;;;5.50;2.80;;;;;;;20.79;56.44;101227.08;110516;1263;22370;-48
2023/06/29 00:06:26;;;;;;;3.20;2.40;;;;;;;20.74;56.48;101223.45;110548;1274;22411;-48
2023/06/29 00:08:53;;;;;;;3.90;2.20;;;;;;;20.70;56.73;101216.99;110537;1263;23224;-45
2023/06/29 00:11:22;;;;;;;4.60;2.60;;;;;;;20.68;56.86;101206.73;110411;1262;22155;-47
2023/06/29 00:13:49;;;;;;;2.40;2.20;;;;;;;20.65;56.98;101199.98;110579;1260;22130;-45
2023/06/29 00:16:17;;;;;;;5.10;2.30;;;;;;;20.64;57.18;101195.33;110573;1264;22139;-46
2023/06/29 00:18:44;;;;;;;3.20;2.20;;;;;;;20.62;57.45;101192.29;110561;1264;22369;-45
2023/06/29 00:21:11;;;;;;;4.20;2.70;;;;;;;20.61;57.49;101197.09;110594;1264;22387;-46
2023/06/29 00:23:38;;;;;;;4.00;2.70;;;;;;;20.58;57.60;101195.13;110579;1263;22377;-46
2023/06/29 00:26:05;;;;;;;4.60;2.70;;;;;;;20.54;57.76;101194.13;110591;1259;22137;-46
2023/06/29 00:28:32;;;;;;;4.10;2.90;;;;;;;20.52;57.94;101191.96;110596;1256;22179;-48
2023/06/29 00:30:59;;;;;;;6.00;3.00;;;;;;;20.50;57.80;101190.16;110594;1259;22339;-51
2023/06/29 00:33:27;;;;;;;4.70;2.70;;;;;;;20.46;58.07;101187.17;110500;1254;22310;-48
2023/06/29 00:35:56;;;;;;;6.10;2.60;;;;;;;20.43;58.37;101184.52;110564;1263;22379;-46
2023/06/29 00:38:23;;;;;;;3.60;2.50;;;;;;;20.42;58.42;101180.56;110603;1260;22471;-48
2023/06/29 00:40:49;;;;;;;3.70;2.70;;;;;;;20.40;58.47;101175.55;110478;1264;22369;-47
2023/06/29 00:43:18;;;;;;;4.70;3.10;;;;;;;20.38;58.65;101173.19;110375;1257;22385;-48
2023/06/29 00:45:44;;;;;;;4.80;2.90;;;;;;;20.37;58.76;101165.14;110575;1263;22383;-46
2023/06/29 00:48:12;;;;;;;3.70;2.90;;;;;;;20.37;58.79;101165.65;110424;1265;22085;-49
2023/06/29 00:50:39;;;;;;;4.10;2.80;;;;;;;20.37;59.03;101159.83;110376;1268;22194;-46
2023/06/29 00:53:06;;;;;;;4.20;3.20;;;;;;;20.36;59.01;101165.89;110545;1268;22359;-46
2023/06/29 00:55:33;;;;;;;4.30;3.20;;;;;;;20.35;59.20;101165.06;110627;1267;22553;-46
2023/06/29 00:58:00;;;;;;;4.60;2.90;;;;;;;20.35;59.27;101171.07;110549;1267;22409;-46
2023/06/29 01:00:27;;;;;;;4.80;3.70;;;;;;;20.35;59.21;101178.13;110553;1261;22229;-50
2023/06/29 01:02:54;;;;;;;4.90;3.20;;;;;;;20.33;59.22;101181.02;110626;1267;22336;-45
2023/06/29 01:05:20;;;;;;;4.10;2.90;;;;;;;20.31;59.11;101179.92;110400;1266;22341;-51
2023/06/29 01:07:56;;;;;;;7.60;3.50;;;;;;;20.28;59.31;101165.65;110596;1256;23193;-45
2023/06/29 01:10:25;;;;;;;4.00;3.10;;;;;;;20.26;59.46;101152.39;110446;1264;22182;-47
2023/06/29 01:12:53;;;;;;;4.20;2.80;;;;;;;20.24;59.38;101148.26;110364;1260;22422;-48
2023/06/29 01:15:20;;;;;;;5.50;3.50;;;;;;;20.21;59.63;101151.04;110454;1262;22129;-49
2023/06/29 01:17:47;;;;;;;3.40;3.10;;;;;;;20.21;59.88;101164.77;110309;1269;22302;-48
2023/06/29 01:20:14;;;;;;;6.00;3.40;;;;;;;20.20;59.82;101165.21;110207;1264;22408;-46
2023/06/29 01:23:08;;;;;;;4.00;3.10;;;;;;;20.19;59.81;101171.73;108937;1259;1002375;-46
2023/06/29 01:25:36;;;;;;;4.10;3.00;;;;;;;20.20;59.92;101174.72;110471;1266;22282;-49
2023/06/29 01:28:11;;;;;;;6.00;3.30;;;;;;;20.21;60.07;101182.23;110367;1265;22369;-46
2023/06/29 01:30:45;;;;;;;5.30;3.10;;;;;;;20.21;59.96;101182.21;110078;1271;22366;-47
2023/06/29 01:33:13;;;;;;;7.70;3.40;;;;;;;20.22;60.11;101184.09;110475;1266;22846;-47
2023/06/29 01:35:42;;;;;;;3.90;3.10;;;;;;;20.24;60.00;101178.39;110131;1270;22253;-47
2023/06/29 01:38:12;;;;;;;6.50;3.10;;;;;;;20.25;59.96;101177.27;110189;1264;22514;-46
2023/06/29 01:40:40;;;;;;;3.70;3.40;;;;;;;20.23;59.78;101181.23;110328;1267;22252;-51
2023/06/29 01:43:07;;;;;;;5.50;3.40;;;;;;;20.19;59.61;101178.44;110327;1263;22489;-49
2023/06/29 01:45:36;;;;;;;3.60;2.60;;;;;;;20.16;59.75;101173.15;110356;1266;22185;-47
2023/06/29 01:48:04;;;;;;;4.70;2.80;;;;;;;20.13;59.84;101166.60;110267;1263;22404;-46
2023/06/29 01:50:31;;;;;;;4.20;3.10;;;;;;;20.13;59.84;101175.43;110310;1271;23073;-45
2023/06/29 01:52:58;;;;;;;3.50;3.00;;;;;;;20.14;60.02;101172.75;110204;1265;22324;-48
2023/06/29 01:55:24;;;;;;;5.20;3.20;;;;;;;20.15;60.16;101169.66;110286;1264;22335;-45
2023/06/29 01:57:51;;;;;;;3.60;3.10;;;;;;;20.17;60.17;101171.69;110455;1263;22274;-47
2023/06/29 02:00:20;;;;;;;4.50;3.00;;;;;;;20.16;59.90;101170.01;110529;1267;22525;-50
2023/06/29 02:02:51;;;;;;;7.80;3.30;;;;;;;20.14;59.91;101160.21;110446;1262;22418;-47
2023/06/29 02:05:21;;;;;;;3.70;2.80;;;;;;;20.11;59.92;101153.50;110544;1268;22310;-48
2023/06/29 02:07:48;;;;;;;5.70;3.40;;;;;;;20.10;59.99;101144.05;110403;1267;22383;-51
2023/06/29 02:10:15;;;;;;;9.20;3.60;;;;;;;20.09;60.18;101136.70;110455;1260;22209;-46
2023/06/29 02:12:43;;;;;;;4.60;3.10;;;;;;;20.09;60.31;101137.63;110618;1262;22398;-47
2023/06/29 02:15:10;;;;;;;5.40;3.00;;;;;;;20.09;60.33;101141.48;110603;1263;22982;-46
2023/06/29 02:17:37;;;;;;;6.00;3.20;;;;;;;20.11;60.44;101148.92;110592;1252;23108;-49
2023/06/29 02:20:09;;;;;;;5.50;3.40;;;;;;;20.14;60.55;101158.48;110634;1262;22394;-46
2023/06/29 02:22:37;;;;;;;4.50;3.40;;;;;;;20.16;60.53;101162.56;110610;1256;22941;-48
2023/06/29 02:25:04;;;;;;;5.70;3.00;;;;;;;20.18;60.45;101157.89;110457;1265;22292;-46
2023/06/29 02:27:31;;;;;;;4.40;2.80;;;;;;;20.19;60.49;101160.48;110092;1271;22135;-47
2023/06/29 02:29:58;;;;;;;4.70;3.10;;;;;;;20.20;60.55;101163.77;110401;1262;22380;-49
2023/06/29 02:32:25;;;;;;;3.70;3.30;;;;;;;20.20;60.53;101174.16;110598;1263;22853;-47
2023/06/29 02:34:52;;;;;;;5.00;3.60;;;;;;;20.22;60.59;101175.13;110611;1256;22416;-49
2023/06/29 02:37:19;;;;;;;3.80;3.20;;;;;;;20.23;60.56;101174.35;110601;1259;22171;-46
2023/06/29 02:39:46;;;;;;;5.00;3.20;;;;;;;20.25;60.60;101175.12;110564;1262;22485;-49
2023/06/29 02:42:13;;;;;;;4.40;3.40;;;;;;;20.27;60.67;101171.00;110490;1262;22435;-47
2023/06/29 02:44:41;;;;;;;6.40;3.30;;;;;;;20.29;60.63;101160.14;110598;1268;22834;-45
2023/06/29 02:47:08;;;;;;;8.60;3.80;;;;;;;20.30;60.48;101151.11;110646;1263;22878;-47
2023/06/29 02:49:35;;;;;;;4.90;2.90;;;;;;;20.30;60.37;101147.20;110519;1268;22413;-46
2023/06/29 02:52:02;;;;;;;7.40;3.80;;;;;;;20.28;60.31;101151.73;110482;1262;23101;-48
2023/06/29 02:54:29;;;;;;;7.10;3.00;;;;;;;20.26;60.40;101147.96;110654;1251;23294;-49
2023/06/29 02:56:56;;;;;;;5.60;3.60;;;;;;;20.27;60.43;101151.44;110597;1260;23043;-46
2023/06/29 02:59:27;;;;;;;5.30;3.70;;;;;;;20.27;60.30;101154.06;110593;1255;22183;-48
2023/06/29 03:01:54;;;;;;;5.00;3.40;;;;;;;20.28;60.36;101154.20;110622;1263;22210;-45
2023/06/29 03:04:21;;;;;;;7.00;3.30;;;;;;;20.28;60.45;101147.64;110489;1265;22218;-45
2023/06/29 03:06:47;;;;;;;7.00;3.40;;;;;;;20.30;60.35;101148.64;110656;1263;22430;-47
2023/06/29 03:09:15;;;;;;;4.60;3.20;;;;;;;20.31;60.43;101146.23;110534;1260;22890;-46
2023/06/29 03:11:41;;;;;;;9.00;3.40;;;;;;;20.33;60.24;101146.70;110585;1264;23181;-46
2023/06/29 03:14:08;;;;;;;3.70;3.40;;;;;;;20.32;60.39;101150.43;110252;1265;23193;-46
2023/06/29 03:16:35;;;;;;;9.30;3.80;;;;;;;20.32;60.14;101153.58;110597;1263;23160;-45
2023/06/29 03:19:02;;;;;;;5.30;3.70;;;;;;;20.30;60.15;101153.73;110594;1268;22152;-49
2023/06/29 03:21:29;;;;;;;6.00;3.80;;;;;;;20.28;60.14;101141.14;110175;1264;22323;-52
2023/06/29 03:23:56;;;;;;;6.30;3.30;;;;;;;20.28;60.23;101136.74;110574;1267;22397;-47
2023/06/29 03:26:23;;;;;;;6.30;3.90;;;;;;;20.29;60.29;101140.90;110365;1269;22410;-46
2023/06/29 03:28:50;;;;;;;8.10;3.30;;;;;;;20.31;60.31;101146.63;110583;1262;23093;-45
2023/06/29 03:31:16;;;;;;;6.60;3.80;;;;;;;20.32;60.35;101149.71;110592;1263;22382;-48
2023/06/29 03:33:43;;;;;;;5.60;3.50;;;;;;;20.33;60.41;101149.31;110582;1259;22269;-46
2023/06/29 03:36:13;;;;;;;6.60;3.50;;;;;;;20.33;60.19;101153.21;110612;1253;22844;-46
2023/06/29 03:38:40;;;;;;;4.10;3.30;;;;;;;20.29;60.25;101151.48;110443;1267;22293;-52
2023/06/29 03:41:07;;;;;;;6.70;3.70;;;;;;;20.28;60.47;101151.36;110603;1259;22332;-48
2023/06/29 03:43:34;;;;;;;8.00;3.50;;;;;;;20.31;60.69;101156.84;110376;1258;22299;-46
2023/06/29 03:46:01;;;;;;;7.70;3.60;;;;;;;20.34;60.69;101151.02;110626;1259;22437;-46
2023/06/29 03:48:28;;;;;;;5.70;3.00;;;;;;;20.37;60.67;101140.10;110620;1256;22958;-46
2023/06/29 03:50:59;;;;;;;6.40;3.60;;;;;;;20.38;60.58;101136.52;110590;1263;22335;-46
2023/06/29 03:53:26;;;;;;;6.30;3.30;;;;;;;20.40;60.68;101140.83;110600;1268;22340;-49
2023/06/29 03:55:53;;;;;;;6.90;3.80;;;;;;;20.42;60.78;101141.77;110584;1253;22150;-49
2023/06/29 03:58:20;;;;;;;9.80;3.40;;;;;;;20.47;60.89;101142.19;110624;1265;23139;-50
2023/06/29 04:00:48;;;;;;;4.60;3.20;;;;;;;20.53;60.75;101138.33;110307;1267;22346;-47
2023/06/29 04:03:15;;;;;;;8.40;3.70;;;;;;;20.61;60.92;101139.45;110616;1259;22769;-45
2023/06/29 04:05:42;;;;;;;6.30;3.00;;;;;;;20.71;60.58;101144.86;110612;1263;22432;-48
2023/06/29 04:08:09;;;;;;;7.20;3.20;;;;;;;20.81;60.12;101141.80;110227;1267;22485;-49
2023/06/29 04:10:37;;;;;;;4.40;3.60;;;;;;;20.86;59.85;101143.78;110475;1263;22346;-48
2023/06/29 04:13:05;;;;;;;8.60;3.00;;;;;;;20.90;59.60;101148.88;110646;1254;22480;-46
2023/06/29 04:15:32;;;;;;;6.60;3.20;;;;;;;20.92;59.53;101151.55;110237;1264;22425;-47
2023/06/29 04:17:59;;;;;;;4.80;3.00;;;;;;;20.94;59.59;101154.80;110619;1269;22384;-46
2023/06/29 04:20:28;;;;;;;5.80;3.00;;;;;;;20.96;59.60;101155.52;110642;1264;22417;-49
2023/06/29 04:22:55;;;;;;;4.60;3.40;;;;;;;20.99;59.52;101150.27;110612;1259;22165;-50
2023/06/29 04:25:23;;;;;;;5.90;3.10;;;;;;;21.00;59.37;101150.70;110445;1270;22435;-46
2023/06/29 04:27:50;;;;;;;4.80;3.10;;;;;;;21.02;59.44;101155.77;110627;1253;22677;-46
2023/06/29 04:30:17;;;;;;;5.60;3.10;;;;;;;21.05;59.56;101164.41;110355;1263;23289;-48
2023/06/29 04:32:45;;;;;;;6.00;3.30;;;;;;;21.10;59.51;101164.30;110276;1266;23085;-45
2023/06/29 04:35:12;;;;;;;5.30;3.10;;;;;;;21.13;59.25;101159.33;110601;1253;22303;-49
2023/06/29 04:37:41;;;;;;;4.50;2.90;;;;;;;21.16;59.06;101162.52;110600;1263;23058;-45
2023/06/29 04:40:14;;;;;;;4.60;2.80;;;;;;;21.18;58.83;101163.48;110581;1263;22185;-46
2023/06/29 04:42:47;;;;;;;4.50;3.10;;;;;;;21.19;58.77;101164.27;110599;1259;22360;-46
2023/06/29 04:45:19;;;;;;;3.50;3.00;;;;;;;21.21;58.75;101172.12;110435;1265;22490;-49
2023/06/29 04:47:46;;;;;;;4.90;2.80;;;;;;;21.22;58.55;101175.05;110439;1257;22153;-50
2023/06/29 04:50:13;;;;;;;5.10;2.60;;;;;;;21.22;58.65;101173.62;110597;1255;23048;-50
2023/06/29 04:52:41;;;;;;;4.00;2.70;;;;;;;21.24;58.81;101175.82;110610;1263;22537;-50
2023/06/29 04:55:09;;;;;;;7.00;3.10;;;;;;;21.27;58.72;101178.64;110594;1269;22413;-45
2023/06/29 04:57:37;;;;;;;4.10;2.90;;;;;;;21.30;58.83;101179.52;110646;1263;22376;-47
2023/06/29 05:00:13;;;;;;;5.60;3.00;;;;;;;21.34;58.67;101180.53;110598;1261;22433;-46
2023/06/29 05:02:40;;;;;;;8.50;3.40;;;;;;;21.37;58.48;101180.66;110599;1253;22356;-46
2023/06/29 05:05:07;;;;;;;6.40;3.10;;;;;;;21.41;58.65;101182.01;110614;1263;22149;-50
2023/06/29 05:07:34;;;;;;;4.10;2.50;;;;;;;21.46;58.71;101185.95;110631;1253;22299;-45
2023/06/29 05:10:01;;;;;;;5.50;3.10;;;;;;;21.49;58.48;101187.20;110605;1263;22409;-48
2023/06/29 05:12:29;;;;;;;6.80;2.90;;;;;;;21.51;58.44;101184.77;110314;1264;22458;-50
2023/06/29 05:14:56;;;;;;;5.70;2.90;;;;;;;21.55;58.34;101187.52;110629;1264;22847;-46
2023/06/29 05:17:22;;;;;;;4.60;3.00;;;;;;;21.60;58.28;101190.58;110635;1259;22139;-48
2023/06/29 05:19:50;;;;;;;5.80;2.60;;;;;;;21.64;58.22;101192.22;110629;1263;23180;-46
2023/06/29 05:22:16;;;;;;;3.80;2.90;;;;;;;21.69;57.91;101200.77;110610;1271;22169;-47
2023/06/29 05:24:44;;;;;;;3.70;2.70;;;;;;;21.73;58.04;101200.20;110629;1260;22292;-49
2023/06/29 05:27:11;;;;;;;3.70;3.00;;;;;;;21.79;58.11;101193.25;110611;1259;22205;-46
2023/06/29 05:29:38;;;;;;;4.20;2.80;;;;;;;21.88;58.00;101190.80;110615;1259;22817;-50
2023/06/29 05:32:05;;;;;;;5.90;2.60;;;;;;;21.95;57.78;101191.44;110450;1269;22373;-45
2023/06/29 05:34:32;;;;;;;2.90;2.50;;;;;;;22.01;57.43;101199.87;110614;1256;22958;-48
2023/06/29 05:36:59;;;;;;;4.90;2.60;;;;;;;22.08;57.24;101197.69;110438;1262;22841;-45
2023/06/29 05:39:27;;;;;;;2.80;2.50;;;;;;;22.15;57.52;101197.92;110594;1262;22452;-47
2023/06/29 05:41:53;;;;;;;4.30;2.70;;;;;;;22.27;57.24;101198.92;110586;1264;22293;-48
2023/06/29 05:44:20;;;;;;;4.80;2.80;;;;;;;22.38;56.60;101202.95;110561;1265;22718;-46
2023/06/29 05:46:47;;;;;;;8.10;2.50;;;;;;;22.48;56.49;101201.48;110714;1256;22897;-48
2023/06/29 05:49:14;;;;;;;3.60;2.50;;;;;;;22.55;56.10;101203.11;110642;1263;22265;-45
2023/06/29 05:51:42;;;;;;;4.20;2.80;;;;;;;22.62;55.74;101200.06;110412;1256;22264;-47
2023/06/29 05:54:08;;;;;;;3.20;2.90;;;;;;;22.65;55.15;101203.36;110595;1264;22418;-46
2023/06/29 05:56:35;;;;;;;6.10;2.50;;;;;;;22.68;55.12;101204.63;110635;1259;22810;-46
2023/06/29 05:59:02;;;;;;;4.60;2.80;;;;;;;22.71;55.04;101205.33;110303;1268;22243;-48
2023/06/29 06:01:30;;;;;;;4.20;2.70;;;;;;;22.81;55.43;101202.20;110626;1260;22408;-45
2023/06/29 06:03:57;;;;;;;3.30;2.40;;;;;;;23.00;54.78;101198.64;110447;1266;22402;-45
2023/06/29 06:06:24;;;;;;;6.60;2.20;;;;;;;23.17;54.07;101197.63;110603;1262;22372;-47
2023/06/29 06:08:51;;;;;;;5.40;2.60;;;;;;;23.29;53.35;101196.83;110626;1262;22377;-49
2023/06/29 06:11:18;;;;;;;3.30;2.50;;;;;;;23.38;52.91;101192.52;110595;1274;22232;-46
2023/06/29 06:13:45;;;;;;;3.10;2.20;;;;;;;23.42;52.76;101194.70;110583;1262;23087;-45
2023/06/29 06:16:12;;;;;;;4.20;2.70;;;;;;;23.49;52.70;101194.11;110621;1267;22186;-48
2023/06/29 06:18:39;;;;;;;7.20;2.20;;;;;;;23.56;52.38;101193.39;109836;1256;1002505;-46
2023/06/29 06:21:06;;;;;;;3.60;2.60;;;;;;;23.62;51.69;101191.91;110594;1264;23591;-48
2023/06/29 06:23:33;;;;;;;3.50;2.20;;;;;;;23.65;51.56;101193.34;110575;1262;22205;-48
2023/06/29 06:26:01;;;;;;;3.70;2.40;;;;;;;23.70;52.33;101191.02;110604;1262;23103;-46
2023/06/29 06:28:27;;;;;;;5.70;2.60;;;;;;;23.81;51.73;101185.26;110583;1256;22221;-48
2023/06/29 06:30:54;;;;;;;4.40;2.20;;;;;;;23.89;50.07;101180.79;110667;1256;22384;-47
2023/06/29 06:33:22;;;;;;;2.90;2.30;;;;;;;23.88;49.33;101174.70;110335;1267;22136;-48
2023/06/29 06:35:49;;;;;;;6.00;2.30;;;;;;;23.83;49.06;101171.09;110154;1270;23150;-46
2023/06/29 06:38:18;;;;;;;3.80;1.90;;;;;;;23.78;49.22;101172.37;110600;1256;22211;-48
2023/06/29 06:40:47;;;;;;;7.80;2.30;;;;;;;23.72;48.88;101169.40;110677;1255;22296;-47
2023/06/29 06:43:15;;;;;;;4.40;2.50;;;;;;;23.65;48.85;101169.39;110689;1256;22406;-46
2023/06/29 06:45:42;;;;;;;3.10;2.10;;;;;;;23.60;49.00;101172.20;110629;1262;22333;-48
2023/06/29 06:48:08;;;;;;;8.50;2.70;;;;;;;23.57;49.31;101164.45;110606;1264;22226;-49
2023/06/29 06:50:38;;;;;;;5.10;2.50;;;;;;;23.52;49.29;101162.49;110634;1259;22130;-45
2023/06/29 06:53:05;;;;;;;5.50;2.20;;;;;;;23.47;49.44;101161.96;110585;1263;22377;-48
2023/06/29 06:55:32;;;;;;;4.50;2.20;;;;;;;23.44;49.07;101163.42;110644;1263;22127;-52
2023/06/29 06:57:59;;;;;;;4.90;2.10;;;;;;;23.42;48.93;101166.60;110572;1264;22348;-46
2023/06/29 07:00:27;;;;;;;2.40;1.60;;;;;;;23.42;48.64;101163.08;110631;1256;23184;-49
2023/06/29 07:02:54;;;;;;;2.90;2.10;;;;;;;23.44;48.34;101158.47;110601;1264;22289;-45
2023/06/29 07:05:21;;;;;;;2.30;1.80;;;;;;;23.52;48.25;101155.08;110598;1263;22138;-48
2023/06/29 07:07:51;;;;;;;4.40;2.10;;;;;;;23.63;47.82;101155.01;110633;1264;22186;-48
2023/06/29 07:10:17;;;;;;;3.30;2.00;;;;;;;23.73;47.25;101158.72;110618;1253;22287;-48
2023/06/29 07:12:44;;;;;;;4.90;1.90;;;;;;;23.78;46.99;101156.42;110632;1262;22286;-47
2023/06/29 07:15:11;;;;;;;4.90;2.30;;;;;;;23.84;47.09;101157.08;110506;1253;22430;-47
2023/06/29 07:17:38;;;;;;;4.60;2.10;;;;;;;23.89;46.61;101153.71;110641;1263;22734;-49
2023/06/29 07:20:06;;;;;;;3.70;2.00;;;;;;;23.93;46.36;101151.80;110602;1256;22482;-46
2023/06/29 07:22:36;;;;;;;;;;;;;;;23.98;46.17;101151.28;110296;1260;23294;-46
2023/06/29 07:25:07;;;;;;;3.00;2.00;;;;;;;23.99;45.17;101149.42;110628;1264;22316;-49
2023/06/29 07:27:33;;;;;;;5.80;2.00;;;;;;;23.99;45.35;101152.03;110663;1263;23068;-46
2023/06/29 07:30:01;;;;;;;3.00;1.90;;;;;;;24.03;45.59;101152.86;110532;1256;22380;-47
2023/06/29 07:32:28;;;;;;;4.00;1.60;;;;;;;24.11;45.40;101152.50;110611;1256;22157;-48
2023/06/29 07:34:55;;;;;;;2.20;1.90;;;;;;;24.20;45.35;101152.17;110628;1260;22400;-46
2023/06/29 07:37:23;;;;;;;2.60;2.00;;;;;;;24.30;45.65;101152.76;110630;1256;22155;-45
2023/06/29 07:39:49;;;;;;;4.40;2.50;;;;;;;24.37;45.96;101156.80;110604;1265;22317;-45
2023/06/29 07:42:16;;;;;;;2.90;2.10;;;;;;;24.42;45.87;101154.48;110176;1266;23281;-48
2023/06/29 07:45:04;;;;;;;2.60;1.90;;;;;;;24.47;45.39;101150.91;110628;1256;22386;-46
2023/06/29 07:47:32;;;;;;;4.00;2.20;;;;;;;24.49;45.30;101148.86;110592;1267;22116;-48
2023/06/29 07:49:59;;;;;;;3.90;2.00;;;;;;;24.50;45.78;101151.75;110674;1266;22353;-47
2023/06/29 07:52:26;;;;;;;3.80;1.90;;;;;;;24.53;45.53;101149.59;110638;1263;22230;-50
2023/06/29 07:54:54;;;;;;;5.40;2.10;;;;;;;24.54;45.68;101153.09;110263;1268;22353;-47
2023/06/29 07:57:20;;;;;;;3.20;2.40;;;;;;;24.54;46.04;101149.86;110609;1264;22338;-46
2023/06/29 07:59:50;;;;;;;7.90;1.90;;;;;;;24.55;45.80;101147.86;110680;1263;22395;-47
2023/06/29 08:02:17;;;;;;;3.40;2.00;;;;;;;24.58;45.81;101145.34;110427;1259;22454;-48
2023/06/29 08:04:44;;;;;;;2.50;1.80;;;;;;;24.62;45.65;101143.23;110608;1265;22387;-48
2023/06/29 08:07:13;;;;;;;2.30;1.60;;;;;;;24.67;44.76;101139.82;110584;1256;22124;-49
2023/06/29 08:09:40;;;;;;;2.30;1.80;;;;;;;24.71;44.26;101143.62;110611;1262;22182;-45
2023/06/29 08:12:07;;;;;;;3.80;1.70;;;;;;;24.74;44.72;101142.02;110477;1263;22368;-49
2023/06/29 08:14:35;;;;;;;3.70;1.70;;;;;;;24.78;44.87;101139.23;109859;1263;1002365;-45
2023/06/29 08:17:03;;;;;;;2.60;1.80;;;;;;;24.82;44.59;101139.61;110577;1265;23291;-47
2023/06/29 08:19:30;;;;;;;3.50;2.10;;;;;;;24.88;45.06;101142.22;110622;1268;22310;-46
2023/06/29 08:21:57;;;;;;;3.10;1.70;;;;;;;24.93;44.91;101147.15;110603;1256;22332;-51
2023/06/29 08:24:24;;;;;;;2.30;1.80;;;;;;;24.99;44.69;101146.16;110635;1256;22427;-46
2023/06/29 08:26:51;;;;;;;3.20;1.70;;;;;;;25.03;44.45;101144.23;110631;1265;22191;-45
2023/06/29 08:29:17;;;;;;;3.40;2.00;;;;;;;25.06;44.47;101137.92;110618;1264;22441;-49
2023/06/29 08:31:44;;;;;;;3.30;1.70;;;;;;;25.12;44.16;101134.50;110661;1262;22358;-49
2023/06/29 08:34:11;;;;;;;3.80;2.00;;;;;;;25.20;43.93;101134.60;110345;1258;22107;-47
2023/06/29 08:36:38;;;;;;;3.50;1.90;;;;;;;25.28;44.00;101128.64;110541;1271;23105;-46
2023/06/29 08:39:05;;;;;;;2.20;2.00;;;;;;;25.37;44.48;101126.52;110383;1268;22151;-45
2023/06/29 08:41:32;;;;;;;3.80;2.10;;;;;;;25.43;44.09;101124.43;110413;1275;22303;-47
2023/06/29 08:43:59;;;;;;;2.80;1.90;;;;;;;25.47;44.39;101126.97;110631;1265;22127;-45
2023/06/29 08:46:25;;;;;;;2.20;1.90;;;;;;;25.49;44.20;101129.08;110562;1263;22406;-46
2023/06/29 08:48:53;;;;;;;6.30;2.20;;;;;;;25.51;44.24;101129.14;110615;1263;22405;-47
2023/06/29 08:51:19;;;;;;;2.00;1.70;;;;;;;25.51;44.80;101127.73;110170;1268;22360;-45
2023/06/29 08:53:46;;;;;;;3.30;1.70;;;;;;;25.51;44.40;101129.30;110121;1270;23070;-46
2023/06/29 08:56:13;;;;;;;3.80;1.90;;;;;;;25.52;44.08;101131.40;110222;1265;22376;-47
2023/06/29 08:58:39;;;;;;;2.90;1.70;;;;;;;25.52;44.02;101135.85;110048;1275;22412;-45
2023/06/29 09:01:07;;;;;;;2.90;2.00;;;;;;;25.52;44.29;101135.47;110188;1272;22646;-48
2023/06/29 09:03:38;;;;;;;1.80;1.50;;;;;;;25.54;43.66;101136.92;110078;1271;23152;-48
2023/06/29 09:06:05;;;;;;;2.30;1.50;;;;;;;25.54;43.43;101140.79;110168;1278;21971;-46
2023/06/29 09:08:36;;;;;;;5.00;1.60;;;;;;;25.52;43.55;101142.20;110092;1271;22308;-48
2023/06/29 09:11:03;;;;;;;4.70;1.60;;;;;;;25.50;43.80;101141.68;110244;1268;22386;-48
2023/06/29 09:13:36;;;;;;;2.50;1.30;;;;;;;25.48;43.97;101141.78;110210;1260;22303;-47
2023/06/29 09:16:04;;;;;;;4.30;1.50;;;;;;;25.48;43.86;101151.02;110238;1258;22683;-45
2023/06/29 09:18:32;;;;;;;5.30;1.90;;;;;;;25.49;44.47;101154.02;110236;1271;22215;-47
2023/06/29 09:21:00;;;;;;;2.40;1.90;;;;;;;25.49;45.68;101151.69;110237;1267;22145;-49
2023/06/29 09:23:28;;;;;;;3.90;2.00;;;;;;;25.47;46.27;101148.48;110533;1267;22304;-48
2023/06/29 09:25:56;;;;;;;2.50;1.90;;;;;;;25.43;46.42;101138.17;110603;1266;22133;-45
2023/06/29 09:28:23;;;;;;;4.10;2.00;;;;;;;25.36;46.02;101140.04;110564;1263;23075;-49
2023/06/29 09:30:50;;;;;;;2.80;2.20;;;;;;;25.30;45.81;101133.58;110583;1266;22372;-44
2023/06/29 09:33:18;;;;;;;7.30;2.40;;;;;;;25.23;45.89;101130.40;110508;1265;22355;-49
2023/06/29 09:35:46;;;;;;;2.50;1.80;;;;;;;25.18;46.41;101135.25;110632;1260;22194;-44
2023/06/29 09:38:15;;;;;;;3.20;2.60;;;;;;;25.12;47.11;101143.55;110587;1255;23236;-48
2023/06/29 09:40:46;;;;;;;4.30;2.00;;;;;;;25.06;47.87;101137.42;110578;1264;23136;-45
2023/06/29 09:43:20;;;;;;;;;;;;;;;25.00;48.47;101132.59;110612;1258;23327;-46
2023/06/29 09:45:47;;;;;;;2.30;2.10;;;;;;;24.96;48.64;101134.29;110568;1274;22481;-48
2023/06/29 09:48:14;;;;;;;4.60;2.60;;;;;;;24.91;48.34;101121.52;110637;1270;22372;-45
2023/06/29 09:50:53;;;;;;;3.40;2.20;;;;;;;24.88;48.45;101120.52;110612;1265;22163;-49
2023/06/29 09:53:32;;;;;;;3.70;2.20;;;;;;;24.86;49.31;101119.80;110595;1256;22181;-45
2023/06/29 09:56:00;;;;;;;3.00;2.30;;;;;;;24.88;50.10;101121.29;110569;1263;23048;-47
2023/06/29 09:58:27;;;;;;;3.00;2.20;;;;;;;24.91;50.24;101126.84;110617;1253;22182;-47
2023/06/29 10:00:58;;;;;;;4.20;2.10;;;;;;;24.96;50.26;101127.05;110619;1263;22300;-48
2023/06/29 10:03:27;;;;;;;3.30;2.40;;;;;;;24.98;50.32;101130.08;110570;1271;23132;-45
2023/06/29 10:05:56;;;;;;;2.40;2.20;;;;;;;25.00;50.62;101127.04;110617;1263;22375;-47
2023/06/29 10:08:24;;;;;;;3.50;2.10;;;;;;;25.06;50.80;101121.31;110549;1256;22301;-48
2023/06/29 10:10:53;;;;;;;2.60;2.00;;;;;;;25.14;50.99;101118.16;110650;1263;23214;-49
2023/06/29 10:13:20;;;;;;;3.70;2.20;;;;;;;25.26;51.09;101118.32;110362;1273;22324;-45
2023/06/29 10:15:47;;;;;;;3.20;2.20;;;;;;;25.39;50.85;101116.02;110567;1257;22315;-47
2023/06/29 10:18:22;;;;;;;3.80;2.30;;;;;;;25.52;50.20;101118.20;110598;1257;22117;-47
2023/06/29 10:20:50;;;;;;;4.80;2.30;;;;;;;25.64;50.06;101118.15;110352;1263;22421;-45
2023/06/29 10:23:17;;;;;;;6.00;2.00;;;;;;;25.72;49.96;101119.30;110672;1256;22380;-46
2023/06/29 10:25:45;;;;;;;5.30;2.30;;;;;;;25.78;49.67;101116.47;110576;1265;23255;-50
2023/06/29 10:28:12;;;;;;;2.90;2.40;;;;;;;25.84;49.38;101118.89;110638;1262;22393;-47
2023/06/29 10:30:44;;;;;;;3.00;2.00;;;;;;;25.87;49.23;101111.93;110540;1269;22477;-47
2023/06/29 10:33:11;;;;;;;4.50;2.10;;;;;;;25.91;49.51;101100.89;110539;1272;22298;-45
2023/06/29 10:35:39;;;;;;;3.90;2.10;;;;;;;25.96;49.04;101102.15;110432;1274;22149;-47
2023/06/29 10:38:11;;;;;;;2.20;2.00;;;;;;;25.98;48.93;101104.30;110291;1269;23721;-46
2023/06/29 10:40:47;;;;;;;2.20;2.00;;;;;;;25.96;48.95;101106.17;110658;1263;22338;-48
2023/06/29 10:43:14;;;;;;;2.40;1.80;;;;;;;25.89;48.97;101104.61;110546;1274;23189;-45
2023/06/29 10:45:41;;;;;;;2.50;1.90;;;;;;;25.83;49.72;101098.15;110566;1268;22380;-48
2023/06/29 10:48:10;;;;;;;3.60;2.00;;;;;;;25.82;50.03;101097.17;110572;1270;22510;-45
2023/06/29 10:50:44;;;;;;;2.90;2.10;;;;;;;25.86;50.18;101092.23;110152;1271;22176;-50
2023/06/29 10:53:16;;;;;;;2.20;2.00;;;;;;;25.94;49.97;101092.89;110603;1260;22792;-47
2023/06/29 10:55:53;;;;;;;;;;;;;;;26.00;50.00;101089.30;110643;1263;22398;-48
2023/06/29 10:58:22;;;;;;;2.30;2.10;;;;;;;26.04;49.36;101091.89;110590;1256;22813;-45
2023/06/29 11:00:51;;;;;;;2.90;2.00;;;;;;;26.03;49.25;101087.66;110615;1264;22556;-45
2023/06/29 11:03:19;;;;;;;4.90;2.40;;;;;;;26.04;49.41;101084.42;110572;1269;22440;-48
2023/06/29 11:05:50;;;;;;;2.40;2.10;;;;;;;26.04;49.12;101079.63;110605;1256;23011;-44
2023/06/29 11:08:17;;;;;;;2.40;2.00;;;;;;;26.02;49.19;101075.38;110591;1270;22150;-48
2023/06/29 11:10:44;;;;;;;3.40;2.20;;;;;;;25.99;49.22;101078.09;110582;1263;22928;-51
2023/06/29 11:13:12;;;;;;;2.10;1.90;;;;;;;25.97;49.28;101081.45;110646;1255;22757;-48
2023/06/29 11:15:39;;;;;;;2.40;1.60;;;;;;;25.96;49.47;101076.54;110622;1266;22847;-45
2023/06/29 11:18:07;;;;;;;4.90;2.00;;;;;;;25.98;49.23;101072.23;110560;1269;22437;-51
2023/06/29 11:20:37;;;;;;;2.30;2.10;;;;;;;26.02;48.42;101063.91;110565;1257;22183;-46